Time;durP1;ratioP1;P1;durP2;ratioP2;P2;SDS_P1;SDS_P2;PMS_P1;PMS_P2;Temp;Humidity;BMP_temperature;BMP_pressure;BME280_temperature;BME280_humidity;BME280_pressure;Samples;Min_cycle;Max_cycle;Signal;HPM_P1;HPM_P2
2023/07/20 00:02:51;;;;;;;6.15;3.30;;;27.10;79.00;;;;;;10824145;33;20020;-73
2023/07/20 00:08:53;;;;;;;6.62;3.33;;;26.80;78.70;;;;;;10824066;33;20373;-73
2023/07/20 00:14:55;;;;;;;4.80;2.53;;;27.00;79.50;;;;;;10823847;33;20069;-74
2023/07/20 00:20:59;;;;;;;11.12;3.10;;;27.10;78.90;;;;;;10823792;33;20020;-73
2023/07/20 00:27:02;;;;;;;6.60;3.08;;;27.00;79.10;;;;;;10810548;33;20024;-72
2023/07/20 00:33:09;;;;;;;5.78;2.72;;;27.20;80.40;;;;;;10823493;33;20314;-74
2023/07/20 00:39:11;;;;;;;4.40;2.45;;;27.30;80.20;;;;;;10823452;33;20039;-73
2023/07/20 00:45:13;;;;;;;5.07;2.75;;;27.10;80.00;;;;;;10823466;33;20421;-73
2023/07/20 00:51:15;;;;;;;3.65;1.50;;;27.30;80.20;;;;;;10829403;33;20028;-74
2023/07/20 00:57:18;;;;;;;4.72;2.65;;;27.30;80.00;;;;;;10829192;33;20354;-74
2023/07/20 01:03:21;;;;;;;2.95;1.75;;;27.30;80.20;;;;;;10812933;33;20028;-74
2023/07/20 01:09:36;;;;;;;2.50;1.85;;;27.20;80.20;;;;;;10828975;33;20035;-74
2023/07/20 01:15:39;;;;;;;2.87;2.05;;;27.30;80.30;;;;;;10828834;33;20028;-74
2023/07/20 01:21:53;;;;;;;3.92;2.03;;;27.10;79.80;;;;;;10815125;33;20055;-75
2023/07/20 01:28:16;;;;;;;1.73;1.33;;;26.90;79.70;;;;;;10815344;33;20047;-74
2023/07/20 01:34:21;;;;;;;4.72;2.50;;;26.80;80.20;;;;;;10815102;33;20028;-74
2023/07/20 01:40:25;;;;;;;4.93;2.72;;;26.80;80.20;;;;;;10827211;33;20023;-74
2023/07/20 01:46:28;;;;;;;9.18;3.60;;;26.80;80.00;;;;;;10827925;33;20012;-74
2023/07/20 01:52:30;;;;;;;4.28;3.03;;;26.80;80.30;;;;;;10827752;33;20394;-74
2023/07/20 01:58:32;;;;;;;4.82;2.03;;;27.10;80.30;;;;;;10827196;32;20038;-74
2023/07/20 02:04:34;;;;;;;5.43;2.25;;;27.10;80.10;;;;;;10813783;33;20028;-74
2023/07/20 02:10:37;;;;;;;4.60;3.03;;;27.00;80.70;;;;;;10827908;33;20021;-74
2023/07/20 02:16:39;;;;;;;5.35;2.10;;;27.00;80.40;;;;;;10827698;33;20448;-75
2023/07/20 02:22:41;;;;;;;3.95;2.40;;;26.80;80.30;;;;;;10826680;33;20024;-74
2023/07/20 02:28:43;;;;;;;5.80;3.05;;;26.70;80.60;;;;;;10827337;33;20059;-74
2023/07/20 02:34:47;;;;;;;7.90;4.18;;;26.70;80.60;;;;;;10827391;33;20042;-73
2023/07/20 02:40:49;;;;;;;4.35;3.05;;;26.90;81.00;;;;;;10827716;33;20042;-73
2023/07/20 02:46:51;;;;;;;8.10;4.50;;;27.10;81.20;;;;;;10827495;33;20306;-74
2023/07/20 02:52:53;;;;;;;5.93;3.30;;;27.00;81.70;;;;;;10824044;33;20055;-75
2023/07/20 02:58:55;;;;;;;7.97;4.87;;;26.80;81.20;;;;;;10826527;33;20428;-75
2023/07/20 03:05:00;;;;;;;10.65;3.87;;;26.60;81.30;;;;;;10813318;32;20020;-74
2023/07/20 03:11:02;;;;;;;7.45;4.37;;;26.40;81.60;;;;;;10825914;33;20004;-74
2023/07/20 03:17:04;;;;;;;7.50;4.00;;;26.70;82.20;;;;;;10826114;33;20020;-74
2023/07/20 03:23:06;;;;;;;2.92;2.42;;;26.80;82.20;;;;;;10813233;33;20043;-74
2023/07/20 03:29:08;;;;;;;7.20;3.62;;;26.80;82.00;;;;;;10824978;33;20046;-74
2023/07/20 03:35:10;;;;;;;6.62;3.78;;;26.70;82.20;;;;;;10824914;33;20050;-71
2023/07/20 03:41:12;;;;;;;4.10;2.87;;;26.60;82.60;;;;;;10824813;33;20039;-71
2023/07/20 03:47:14;;;;;;;8.07;5.22;;;26.50;83.00;;;;;;10812814;33;20008;-71
2023/07/20 03:53:16;;;;;;;5.68;4.43;;;26.30;82.70;;;;;;10811227;33;20050;-71
2023/07/20 03:59:18;;;;;;;5.47;3.65;;;26.30;82.80;;;;;;10811937;32;20335;-71
2023/07/20 04:05:20;;;;;;;5.93;3.87;;;26.30;82.60;;;;;;10812056;32;20338;-71
2023/07/20 04:11:22;;;;;;;5.28;3.85;;;26.50;82.30;;;;;;10812085;33;20012;-71
2023/07/20 04:17:24;;;;;;;5.62;3.33;;;26.50;82.20;;;;;;10825115;32;20424;-71
2023/07/20 04:23:26;;;;;;;5.55;3.70;;;26.50;82.00;;;;;;10831697;33;20016;-70
2023/07/20 04:29:28;;;;;;;10.27;4.97;;;26.40;82.60;;;;;;10830386;33;20024;-71
2023/07/20 04:35:53;;;;;;;6.32;4.00;;;26.40;82.80;;;;;;10829952;33;20020;-71
2023/07/20 04:41:55;;;;;;;6.03;3.67;;;26.50;82.70;;;;;;10830448;33;20046;-71
2023/07/20 04:47:57;;;;;;;7.28;3.97;;;26.70;82.80;;;;;;10825986;33;20043;-71
2023/07/20 04:53:59;;;;;;;5.05;3.00;;;26.80;82.40;;;;;;10830610;33;20043;-71
2023/07/20 05:00:01;;;;;;;5.45;3.87;;;26.70;82.20;;;;;;10829403;33;20444;-71
2023/07/20 05:06:03;;;;;;;6.05;3.67;;;26.60;82.40;;;;;;10829129;33;20055;-71
2023/07/20 05:12:06;;;;;;;5.25;3.35;;;26.70;82.30;;;;;;10830517;33;20028;-71
2023/07/20 05:18:08;;;;;;;4.65;2.78;;;26.80;82.20;;;;;;10828907;33;20016;-72
2023/07/20 05:24:10;;;;;;;6.70;4.10;;;26.70;82.20;;;;;;10829303;33;20031;-72
2023/07/20 05:30:12;;;;;;;6.62;4.03;;;26.70;82.20;;;;;;10814093;32;20037;-72
2023/07/20 05:36:14;;;;;;;9.45;3.70;;;26.80;82.60;;;;;;10828999;33;20094;-72
2023/07/20 05:42:16;;;;;;;6.05;3.50;;;26.90;82.20;;;;;;10829413;33;20046;-71
2023/07/20 05:48:17;;;;;;;6.20;3.78;;;27.00;82.40;;;;;;10829178;33;20046;-72
2023/07/20 05:54:19;;;;;;;5.45;3.08;;;27.00;82.90;;;;;;10828983;33;20027;-72
2023/07/20 06:00:26;;;;;;;4.78;3.25;;;27.20;83.10;;;;;;10829475;33;20039;-72
2023/07/20 06:06:28;;;;;;;8.43;3.95;;;27.40;82.90;;;;;;10814222;33;20020;-71
2023/07/20 06:12:30;;;;;;;4.85;2.40;;;27.50;83.00;;;;;;10813764;33;20031;-72
2023/07/20 06:18:32;;;;;;;3.25;1.80;;;27.70;83.10;;;;;;10813542;33;20020;-72
2023/07/20 06:24:34;;;;;;;4.70;2.60;;;27.80;82.40;;;;;;10805271;33;20040;-72
2023/07/20 06:30:37;;;;;;;3.17;1.80;;;27.80;82.30;;;;;;10789996;33;20433;-72
2023/07/20 06:36:39;;;;;;;3.50;2.00;;;27.90;82.30;;;;;;10788365;33;20028;-72
2023/07/20 06:42:41;;;;;;;3.90;2.60;;;28.00;82.40;;;;;;10789327;33;20031;-72
2023/07/20 06:48:43;;;;;;;2.75;2.03;;;28.10;82.30;;;;;;10789423;33;20394;-72
2023/07/20 06:54:45;;;;;;;3.35;2.25;;;28.10;82.70;;;;;;10789087;33;20047;-72
2023/07/20 07:00:47;;;;;;;4.22;1.90;;;28.10;82.80;;;;;;10786361;33;20025;-72
2023/07/20 07:06:49;;;;;;;5.53;1.95;;;27.90;83.00;;;;;;10788926;33;20024;-72
2023/07/20 07:12:51;;;;;;;3.58;1.62;;;27.90;83.00;;;;;;10788477;33;20024;-72
2023/07/20 07:18:54;;;;;;;6.62;2.45;;;27.90;83.10;;;;;;10788314;33;20059;-72
2023/07/20 07:24:56;;;;;;;4.95;2.12;;;28.20;83.10;;;;;;10788407;33;20403;-71
2023/07/20 07:30:58;;;;;;;1.20;0.90;;;28.40;83.20;;;;;;10822926;27;20430;-72
2023/07/20 07:37:00;;;;;;;3.00;1.58;;;28.50;82.80;;;;;;10812244;33;20066;-71
2023/07/20 07:43:03;;;;;;;3.95;2.33;;;28.60;82.70;;;;;;10811541;33;20020;-72
2023/07/20 07:49:05;;;;;;;2.30;1.62;;;28.60;83.00;;;;;;10824319;33;20035;-73
2023/07/20 07:55:07;;;;;;;1.92;1.33;;;28.70;83.10;;;;;;10823783;33;20038;-73
2023/07/20 08:01:09;;;;;;;2.80;1.98;;;28.80;83.00;;;;;;10824515;33;20050;-72
2023/07/20 08:07:11;;;;;;;3.42;1.83;;;28.90;82.30;;;;;;10824073;33;20047;-73
2023/07/20 08:13:14;;;;;;;4.97;2.05;;;28.90;83.10;;;;;;10810368;33;20067;-72
2023/07/20 08:19:16;;;;;;;3.33;1.80;;;29.00;82.70;;;;;;10823971;33;20016;-73
2023/07/20 08:25:19;;;;;;;2.72;1.02;;;29.00;82.40;;;;;;10823652;33;20055;-73
2023/07/20 08:31:21;;;;;;;2.92;1.30;;;29.00;82.30;;;;;;10810712;33;20027;-74
2023/07/20 08:37:23;;;;;;;2.95;1.73;;;29.10;82.00;;;;;;10823446;33;20028;-72
2023/07/20 08:43:27;;;;;;;3.03;1.50;;;29.20;81.00;;;;;;10822551;33;20399;-73
2023/07/20 08:49:32;;;;;;;2.72;1.73;;;29.30;80.80;;;;;;10819426;33;20051;-73
2023/07/20 08:55:36;;;;;;;4.62;2.33;;;29.30;79.70;;;;;;10823088;33;20311;-73
2023/07/20 09:01:40;;;;;;;4.82;1.77;;;29.40;77.90;;;;;;10823011;33;20456;-73
2023/07/20 09:07:42;;;;;;;3.85;2.08;;;29.50;78.40;;;;;;10827518;32;20021;-73
2023/07/20 09:13:44;;;;;;;5.07;1.62;;;29.70;78.20;;;;;;10828960;33;20401;-73
2023/07/20 09:19:47;;;;;;;3.83;2.05;;;29.80;77.50;;;;;;10828578;33;20016;-74
2023/07/20 09:25:50;;;;;;;2.60;1.17;;;29.90;77.20;;;;;;10816185;32;20105;-74
2023/07/20 09:32:22;;;;;;;5.50;2.12;;;29.90;76.20;;;;;;10828352;33;20036;-74
2023/07/20 09:38:26;;;;;;;2.33;1.35;;;30.10;75.60;;;;;;10827156;33;20101;-74
2023/07/20 09:44:29;;;;;;;5.43;2.50;;;30.10;74.90;;;;;;10828084;33;20046;-74
2023/07/20 09:50:31;;;;;;;5.18;1.67;;;30.20;75.00;;;;;;10828620;33;20050;-73
2023/07/20 09:56:34;;;;;;;1.33;0.95;;;30.40;74.90;;;;;;10827713;33;20024;-73
2023/07/20 10:02:41;;;;;;;3.72;1.70;;;30.60;75.90;;;;;;10827674;33;20432;-74
2023/07/20 10:08:47;;;;;;;4.00;1.87;;;30.60;74.20;;;;;;10828995;33;20024;-73
2023/07/20 10:15:00;;;;;;;6.78;3.20;;;30.70;74.20;;;;;;10826669;32;20055;-72
2023/07/20 10:21:04;;;;;;;3.35;1.85;;;30.80;73.30;;;;;;10813507;33;20032;-73
2023/07/20 10:27:06;;;;;;;3.10;1.70;;;30.90;72.80;;;;;;10826837;33;20050;-72
2023/07/20 10:46:46;;;;;;;3.70;1.77;;;30.90;70.20;;;;;;10666929;31;12376435;-73
2023/07/20 10:53:24;;;;;;;3.00;1.52;;;31.10;68.00;;;;;;11000972;32;20301;-73
2023/07/20 10:59:32;;;;;;;;;;;31.30;69.50;;;;;;11008951;32;20030;-72
2023/07/20 11:05:35;;;;;;;3.30;1.67;;;31.40;69.40;;;;;;11008672;32;19944;-72
2023/07/20 11:11:38;;;;;;;4.53;1.73;;;31.60;69.30;;;;;;11008425;32;20053;-72
2023/07/20 11:17:40;;;;;;;4.43;2.17;;;31.80;67.90;;;;;;11032489;32;20073;-72
2023/07/20 11:23:45;;;;;;;2.90;1.65;;;32.10;68.80;;;;;;11049528;32;20010;-72
2023/07/20 11:29:47;;;;;;;3.85;1.75;;;32.30;68.30;;;;;;11048308;32;20052;-73
2023/07/20 11:35:50;;;;;;;4.10;1.25;;;32.60;67.10;;;;;;11049061;32;20319;-72
2023/07/20 11:41:57;;;;;;;8.80;2.00;;;32.80;68.60;;;;;;11046956;32;20061;-72
2023/07/20 11:48:00;;;;;;;1.45;0.80;;;32.90;69.40;;;;;;11022996;32;20430;-71
2023/07/20 11:54:03;;;;;;;3.45;1.87;;;33.10;69.60;;;;;;11022753;32;20019;-73
2023/07/20 12:00:12;;;;;;;4.50;1.62;;;33.20;68.50;;;;;;11022660;32;20330;-72
2023/07/20 12:06:14;;;;;;;3.85;1.87;;;33.30;66.70;;;;;;11019048;32;20315;-73
2023/07/20 12:12:16;;;;;;;5.97;1.37;;;33.40;67.50;;;;;;11008480;32;20061;-73
2023/07/20 12:18:18;;;;;;;2.80;1.80;;;33.40;65.70;;;;;;11021117;32;20015;-73
2023/07/20 12:24:20;;;;;;;4.10;1.45;;;33.40;65.00;;;;;;11021713;32;20019;-73
2023/07/20 12:30:22;;;;;;;3.97;1.98;;;33.60;64.90;;;;;;11021555;32;20053;-73
2023/07/20 12:36:24;;;;;;;2.87;1.48;;;33.70;66.20;;;;;;11017265;32;20027;-73
2023/07/20 12:42:27;;;;;;;7.82;1.62;;;33.50;65.30;;;;;;11019545;32;20023;-72
2023/07/20 12:48:29;;;;;;;4.90;1.45;;;33.50;65.80;;;;;;11020976;32;20048;-72
2023/07/20 12:54:31;;;;;;;2.42;1.40;;;33.60;66.90;;;;;;11019957;32;20026;-73
2023/07/20 13:00:33;;;;;;;5.50;2.00;;;33.50;66.50;;;;;;11020380;32;20033;-73
2023/07/20 13:06:35;;;;;;;4.60;1.83;;;33.60;64.60;;;;;;11020010;32;20164;-75
2023/07/20 13:12:38;;;;;;;4.95;1.87;;;33.70;63.40;;;;;;11019715;32;20021;-72
2023/07/20 13:18:40;;;;;;;4.25;2.22;;;33.60;61.70;;;;;;11006000;32;20371;-72
2023/07/20 13:24:46;;;;;;;3.97;1.73;;;33.60;61.50;;;;;;11019488;32;20018;-73
2023/07/20 13:30:48;;;;;;;5.20;1.80;;;33.60;60.90;;;;;;11019096;32;20425;-72
2023/07/20 13:36:50;;;;;;;5.37;2.25;;;33.60;59.90;;;;;;11017881;32;20038;-72
2023/07/20 13:42:52;;;;;;;2.53;1.30;;;33.70;58.90;;;;;;11018950;32;20022;-73
2023/07/20 13:48:54;;;;;;;18.12;6.72;;;33.70;58.80;;;;;;11018759;32;20045;-73
2023/07/20 13:54:56;;;;;;;5.20;1.90;;;33.70;61.70;;;;;;11018390;32;20022;-72
2023/07/20 14:00:59;;;;;;;4.03;1.98;;;33.60;61.80;;;;;;11018380;32;20049;-72
2023/07/20 14:07:01;;;;;;;4.22;2.05;;;33.50;61.50;;;;;;11016950;32;20072;-73
2023/07/20 14:13:03;;;;;;;3.58;1.87;;;33.50;63.20;;;;;;11017503;32;20030;-72
2023/07/20 14:19:05;;;;;;;7.05;2.72;;;33.70;62.50;;;;;;11015713;32;20010;-73
2023/07/20 14:25:08;;;;;;;3.00;1.52;;;33.60;64.20;;;;;;11017895;32;20061;-73
2023/07/20 14:31:26;;;;;;;2.85;1.60;;;33.60;62.80;;;;;;11013354;32;20018;-73
2023/07/20 14:37:28;;;;;;;3.95;1.77;;;33.70;61.50;;;;;;11016539;32;20038;-73
2023/07/20 14:43:30;;;;;;;6.25;2.65;;;33.80;60.50;;;;;;11017431;32;20053;-73
2023/07/20 14:49:32;;;;;;;3.37;1.90;;;33.80;59.30;;;;;;11017482;32;20362;-73
2023/07/20 14:55:34;;;;;;;1.80;0.82;;;33.70;59.40;;;;;;11000819;32;20053;-73
2023/07/20 15:01:36;;;;;;;4.80;2.08;;;33.70;58.90;;;;;;10977934;32;20023;-73
2023/07/20 15:07:38;;;;;;;7.18;1.80;;;33.70;59.00;;;;;;10978969;32;20060;-72
2023/07/20 15:13:42;;;;;;;5.78;1.80;;;33.70;58.50;;;;;;10978847;32;20344;-73
2023/07/20 15:19:44;;;;;;;2.62;1.33;;;33.80;58.40;;;;;;10981925;32;20019;-72
2023/07/20 15:25:47;;;;;;;6.37;2.17;;;33.80;57.70;;;;;;10986427;32;20050;-72
2023/07/20 15:31:49;;;;;;;5.53;1.73;;;33.80;57.70;;;;;;10985577;32;20045;-73
2023/07/20 15:37:51;;;;;;;7.12;2.55;;;33.70;57.10;;;;;;10985349;32;20396;-73
2023/07/20 15:43:53;;;;;;;7.12;1.55;;;33.70;58.60;;;;;;10984808;32;20041;-73
2023/07/20 15:49:55;;;;;;;4.15;2.00;;;33.60;57.60;;;;;;10984458;32;20023;-72
2023/07/20 15:55:58;;;;;;;4.05;1.75;;;33.70;57.00;;;;;;10984308;32;20022;-71
2023/07/20 16:02:00;;;;;;;4.47;1.50;;;33.80;58.10;;;;;;10983957;32;20023;-72
2023/07/20 16:08:04;;;;;;;2.20;1.20;;;33.80;59.20;;;;;;10984317;32;20048;-72
2023/07/20 16:14:07;;;;;;;2.42;1.05;;;33.90;58.90;;;;;;10984046;32;20015;-72
2023/07/20 16:20:10;;;;;;;2.08;1.30;;;34.00;58.90;;;;;;10983979;32;20046;-72
2023/07/20 16:26:12;;;;;;;2.42;1.52;;;34.10;58.90;;;;;;10983636;32;20367;-73
2023/07/20 16:32:14;;;;;;;3.65;1.48;;;34.10;59.10;;;;;;10977708;32;20053;-72
2023/07/20 16:38:17;;;;;;;2.65;1.50;;;34.10;58.50;;;;;;10982061;32;20356;-72
2023/07/20 16:44:19;;;;;;;3.30;1.42;;;34.10;59.90;;;;;;10982020;32;20038;-72
2023/07/20 16:50:21;;;;;;;2.83;1.10;;;34.00;61.40;;;;;;10982777;32;20023;-72
2023/07/20 16:56:24;;;;;;;2.58;1.35;;;34.00;62.20;;;;;;10984781;32;20022;-72
2023/07/20 17:02:26;;;;;;;2.25;1.05;;;33.90;62.40;;;;;;10982303;32;20023;-72
2023/07/20 17:08:29;;;;;;;4.30;1.70;;;33.90;62.90;;;;;;10991774;32;20052;-73
2023/07/20 17:14:32;;;;;;;4.12;1.30;;;33.90;62.40;;;;;;11019987;32;20030;-73
2023/07/20 17:20:34;;;;;;;2.70;1.55;;;33.90;61.80;;;;;;11019728;32;20018;-73
2023/07/20 17:26:38;;;;;;;4.22;1.58;;;33.90;61.50;;;;;;11019649;32;20019;-73
2023/07/20 17:32:40;;;;;;;3.30;1.15;;;33.90;60.90;;;;;;11019306;32;20036;-73
2023/07/20 17:38:42;;;;;;;2.85;1.35;;;33.90;60.70;;;;;;11018393;32;20305;-73
2023/07/20 17:44:45;;;;;;;3.62;1.33;;;34.00;59.80;;;;;;11018726;32;20013;-73
2023/07/20 17:50:47;;;;;;;5.35;1.50;;;34.00;59.80;;;;;;11018684;32;20019;-73
2023/07/20 17:56:49;;;;;;;4.78;1.27;;;34.00;59.40;;;;;;11018558;32;20018;-73
2023/07/20 18:02:51;;;;;;;2.20;1.55;;;34.00;59.40;;;;;;11018518;32;20054;-73
2023/07/20 18:08:54;;;;;;;1.85;1.23;;;34.20;60.20;;;;;;11017244;32;20072;-73
2023/07/20 18:14:56;;;;;;;2.08;1.27;;;34.40;60.10;;;;;;11018046;32;20340;-73
2023/07/20 18:20:58;;;;;;;4.05;1.55;;;34.00;61.30;;;;;;11017726;32;20041;-73
2023/07/20 18:27:00;;;;;;;1.80;1.10;;;33.60;62.80;;;;;;11017700;32;20400;-73
2023/07/20 18:33:02;;;;;;;2.20;1.20;;;33.30;63.60;;;;;;11017395;32;20422;-73
2023/07/20 18:39:04;;;;;;;2.90;1.30;;;33.10;64.10;;;;;;11018256;32;20018;-73
2023/07/20 18:45:07;;;;;;;2.35;1.35;;;32.90;64.40;;;;;;11048606;27;20045;-73
2023/07/20 18:51:09;;;;;;;5.07;1.58;;;32.70;64.90;;;;;;11056838;32;20331;-73
2023/07/20 18:57:11;;;;;;;2.62;1.20;;;32.50;65.40;;;;;;11062309;32;20312;-73
2023/07/20 19:03:13;;;;;;;1.95;1.27;;;32.30;66.00;;;;;;11060321;32;20026;-74
2023/07/20 19:09:15;;;;;;;3.58;1.55;;;32.20;66.40;;;;;;11063611;32;20403;-74
2023/07/20 19:15:17;;;;;;;3.47;1.73;;;32.00;66.70;;;;;;11063905;32;20018;-74
2023/07/20 19:21:19;;;;;;;2.55;1.05;;;31.90;67.10;;;;;;11063831;32;20026;-74
2023/07/20 19:27:22;;;;;;;3.78;1.33;;;31.80;67.40;;;;;;11063134;32;20399;-73
2023/07/20 19:33:24;;;;;;;4.85;1.50;;;31.70;67.90;;;;;;11062584;32;20022;-73
2023/07/20 19:39:26;;;;;;;3.22;1.42;;;31.60;68.00;;;;;;11062369;32;20018;-73
2023/07/20 19:45:28;;;;;;;3.03;1.62;;;31.40;68.40;;;;;;11061547;32;20304;-73
2023/07/20 19:51:32;;;;;;;2.97;1.45;;;31.30;69.00;;;;;;11061905;32;20018;-73
2023/07/20 19:57:35;;;;;;;3.28;1.52;;;31.30;70.90;;;;;;11060907;32;20308;-73
2023/07/20 20:03:37;;;;;;;1.15;0.82;;;31.30;71.10;;;;;;11056796;32;20030;-73
2023/07/20 20:09:40;;;;;;;4.70;2.05;;;31.20;71.90;;;;;;11060389;32;20013;-73
2023/07/20 20:15:43;;;;;;;2.95;1.45;;;31.10;72.10;;;;;;11055488;32;20481;-73
2023/07/20 20:21:45;;;;;;;4.05;1.77;;;31.10;72.50;;;;;;11061713;32;20052;-73
2023/07/20 20:27:47;;;;;;;3.00;1.50;;;31.00;73.80;;;;;;11057319;32;20031;-73
2023/07/20 20:33:49;;;;;;;3.87;2.25;;;31.00;73.70;;;;;;11060574;32;20052;-73
2023/07/20 20:39:52;;;;;;;6.07;2.35;;;30.80;73.60;;;;;;11060892;32;20014;-73
2023/07/20 20:45:54;;;;;;;6.90;2.33;;;30.70;73.80;;;;;;11059608;32;20018;-73
2023/07/20 20:51:56;;;;;;;2.62;1.62;;;30.80;73.80;;;;;;11060305;32;20033;-73
2023/07/20 20:57:58;;;;;;;3.35;1.90;;;30.60;74.00;;;;;;11060314;32;20049;-73
2023/07/20 21:04:01;;;;;;;3.00;1.80;;;30.70;74.40;;;;;;11059437;32;20018;-73
2023/07/20 21:10:03;;;;;;;2.00;1.40;;;30.60;74.80;;;;;;11059990;32;20386;-73
2023/07/20 21:16:05;;;;;;;2.95;1.55;;;30.50;74.70;;;;;;11059103;32;20097;-73
2023/07/20 21:22:08;;;;;;;2.75;1.50;;;30.30;75.80;;;;;;11059208;32;20379;-73
2023/07/20 21:28:10;;;;;;;4.57;1.70;;;30.30;76.00;;;;;;11059296;32;20312;-73
2023/07/20 21:34:12;;;;;;;5.60;2.70;;;30.30;76.00;;;;;;11057314;32;20022;-73
2023/07/20 21:40:15;;;;;;;3.67;1.80;;;30.30;76.30;;;;;;11058821;32;20422;-73
2023/07/20 21:46:17;;;;;;;5.93;2.47;;;30.20;76.20;;;;;;11057452;32;20022;-73
2023/07/20 21:52:19;;;;;;;5.20;1.90;;;30.20;76.90;;;;;;11056239;32;20060;-73
2023/07/20 21:58:21;;;;;;;4.78;2.70;;;30.20;76.90;;;;;;11043448;32;20057;-73
2023/07/20 22:04:23;;;;;;;4.35;2.22;;;30.20;76.70;;;;;;11055943;32;20104;-73
2023/07/20 22:10:31;;;;;;;4.75;2.53;;;30.20;77.10;;;;;;11058042;32;20325;-73
2023/07/20 22:16:33;;;;;;;3.33;1.77;;;30.10;77.00;;;;;;11057702;32;20048;-73
2023/07/20 22:22:35;;;;;;;2.65;1.80;;;30.00;77.60;;;;;;11025479;32;20026;-73
2023/07/20 22:28:37;;;;;;;3.30;2.12;;;30.00;77.90;;;;;;11018430;32;20396;-73
2023/07/20 22:34:39;;;;;;;5.00;3.37;;;29.90;77.80;;;;;;11019014;32;20026;-73
2023/07/20 22:40:41;;;;;;;2.08;1.35;;;29.90;77.70;;;;;;11017657;32;20400;-73
2023/07/20 22:46:43;;;;;;;3.65;1.80;;;29.90;78.60;;;;;;11017770;32;20087;-73
2023/07/20 22:52:45;;;;;;;6.00;2.17;;;29.80;79.20;;;;;;11017381;32;20396;-73
2023/07/20 22:58:48;;;;;;;5.45;2.70;;;29.80;79.60;;;;;;11015292;32;20018;-73
2023/07/20 23:04:53;;;;;;;2.95;1.73;;;29.80;79.90;;;;;;11017215;32;20015;-73
2023/07/20 23:10:56;;;;;;;2.15;1.58;;;29.70;80.20;;;;;;11017117;32;20327;-73
2023/07/20 23:17:00;;;;;;;3.45;2.00;;;29.80;80.10;;;;;;11015765;32;20057;-72
2023/07/20 23:23:02;;;;;;;1.90;1.42;;;29.60;80.20;;;;;;11016859;32;20018;-73
2023/07/20 23:29:05;;;;;;;5.18;2.35;;;29.60;80.40;;;;;;11016741;32;20061;-73
2023/07/20 23:35:08;;;;;;;8.02;2.87;;;29.60;80.20;;;;;;11013873;32;20022;-72
2023/07/20 23:41:10;;;;;;;3.85;2.28;;;29.70;80.30;;;;;;11020360;32;20041;-73
2023/07/20 23:47:14;;;;;;;5.05;1.85;;;29.50;80.50;;;;;;11023502;32;20338;-72
2023/07/20 23:53:16;;;;;;;4.43;2.10;;;29.60;80.90;;;;;;11023253;32;20026;-73
2023/07/20 23:59:18;;;;;;;11.65;2.20;;;29.50;81.20;;;;;;11023010;32;20049;-73
